Time,TemperatureF,DewpointF,PressureIn,WindDirection,WindDirectionDegrees,WindSpeedMPH,WindSpeedGustMPH,Humidity,HourlyPrecipIn,Conditions,Clouds,dailyrainin,SolarRadiationWatts/m^2,SoftwareType,DateUTC
2013-07-08 00:01:00,63.0,60.0,-100.00,SE,139,4.0,10.0,91,0.00,,,0.00,0.000000,,2013-07-08 05:01:00,
2013-07-08 00:22:00,62.0,60.0,-100.00,SE,142,6.0,13.0,93,0.00,,,0.00,0.000000,,2013-07-08 05:22:00,
2013-07-08 00:34:00,62.0,60.0,-100.00,SE,142,6.0,13.0,93,0.00,,,0.00,0.000000,,2013-07-08 05:34:00,
2013-07-08 00:43:00,62.0,60.0,-100.00,SE,142,6.0,13.0,93,0.00,,,0.00,0.000000,,2013-07-08 05:43:00,
2013-07-08 00:53:00,62.0,60.0,-100.00,SE,142,6.0,13.0,93,0.00,,,0.00,0.000000,,2013-07-08 05:53:00,
2013-07-08 01:01:00,62.0,60.0,-100.00,SE,142,6.0,13.0,93,0.00,,,0.00,0.000000,,2013-07-08 06:01:00,
2013-07-08 01:22:00,62.0,60.0,-100.00,SSE,153,5.0,11.0,94,0.00,,,0.00,0.000000,,2013-07-08 06:22:00,
2013-07-08 01:34:00,62.0,60.0,-100.00,SSE,153,5.0,11.0,94,0.00,,,0.00,0.000000,,2013-07-08 06:34:00,
2013-07-08 01:43:00,62.0,60.0,-100.00,SSE,153,5.0,11.0,94,0.00,,,0.00,0.000000,,2013-07-08 06:43:00,
2013-07-08 01:53:00,62.0,60.0,-100.00,SSE,153,5.0,11.0,94,0.00,,,0.00,0.000000,,2013-07-08 06:53:00,
2013-07-08 02:02:00,62.0,60.0,-100.00,SSE,153,5.0,11.0,94,0.00,,,0.00,0.000000,,2013-07-08 07:02:00,
2013-07-08 02:22:00,61.0,60.0,-100.00,South,175,4.0,9.0,95,0.00,,,0.00,0.000000,,2013-07-08 07:22:00,
2013-07-08 02:34:00,61.0,60.0,-100.00,South,175,4.0,9.0,95,0.00,,,0.00,0.000000,,2013-07-08 07:34:00,
2013-07-08 02:44:00,61.0,60.0,-100.00,South,175,4.0,9.0,95,0.00,,,0.00,0.000000,,2013-07-08 07:44:00,
2013-07-08 02:53:00,61.0,60.0,-100.00,South,175,4.0,9.0,95,0.00,,,0.00,0.000000,,2013-07-08 07:53:00,
2013-07-08 03:02:00,61.0,60.0,-100.00,South,175,4.0,9.0,95,0.00,,,0.00,0.000000,,2013-07-08 08:02:00,
2013-07-08 03:22:00,60.0,59.0,-100.00,SSE,162,3.0,7.0,96,0.00,,,0.00,0.000000,,2013-07-08 08:22:00,
2013-07-08 03:34:00,60.0,59.0,-100.00,SSE,162,3.0,7.0,96,0.00,,,0.00,0.000000,,2013-07-08 08:34:00,
2013-07-08 03:42:00,60.0,59.0,-100.00,SSE,162,3.0,7.0,96,0.00,,,0.00,0.000000,,2013-07-08 08:42:00,
2013-07-08 03:53:00,60.0,59.0,-100.00,SSE,162,3.0,7.0,96,0.00,,,0.00,0.000000,,2013-07-08 08:53:00,
2013-07-08 04:02:00,60.0,59.0,-100.00,SSE,162,3.0,7.0,96,0.00,,,0.00,0.000000,,2013-07-08 09:02:00,
2013-07-08 04:22:00,60.0,59.0,-100.00,SSE,168,3.0,6.0,96,0.00,,,0.00,0.000000,,2013-07-08 09:22:00,
2013-07-08 04:34:00,60.0,59.0,-100.00,SSE,168,3.0,6.0,96,0.00,,,0.00,0.000000,,2013-07-08 09:34:00,
2013-07-08 04:43:00,60.0,59.0,-100.00,SSE,168,3.0,6.0,96,0.00,,,0.00,0.000000,,2013-07-08 09:43:00,
2013-07-08 04:53:00,60.0,59.0,-100.00,SSE,168,3.0,6.0,96,0.00,,,0.00,0.000000,,2013-07-08 09:53:00,
2013-07-08 05:02:00,60.0,59.0,-100.00,SSE,168,3.0,6.0,96,0.00,,,0.00,0.000000,,2013-07-08 10:02:00,
2013-07-08 05:22:00,60.0,59.0,-100.00,SSE,160,4.0,8.0,97,0.00,,,0.00,0.000000,,2013-07-08 10:22:00,
2013-07-08 05:34:00,60.0,59.0,-100.00,SSE,160,4.0,8.0,97,0.00,,,0.00,0.000000,,2013-07-08 10:34:00,
2013-07-08 05:43:00,60.0,59.0,-100.00,SSE,160,4.0,8.0,97,0.00,,,0.00,0.000000,,2013-07-08 10:43:00,
2013-07-08 05:53:00,60.0,59.0,-100.00,SSE,160,4.0,8.0,97,0.00,,,0.00,0.000000,,2013-07-08 10:53:00,
2013-07-08 06:02:00,60.0,59.0,-100.00,SSE,160,4.0,8.0,97,0.00,,,0.00,0.000000,,2013-07-08 11:02:00,
2013-07-08 06:23:00,60.0,59.0,-100.00,South,186,3.0,8.0,97,0.00,,,0.00,4.000000,,2013-07-08 11:23:00,
2013-07-08 06:33:00,60.0,59.0,-100.00,South,186,3.0,8.0,97,0.00,,,0.00,4.000000,,2013-07-08 11:33:00,
2013-07-08 06:43:00,60.0,59.0,-100.00,South,186,3.0,8.0,97,0.00,,,0.00,4.000000,,2013-07-08 11:43:00,
2013-07-08 06:53:00,60.0,59.0,-100.00,South,186,3.0,8.0,97,0.00,,,0.00,4.000000,,2013-07-08 11:53:00,
2013-07-08 07:01:00,60.0,59.0,-100.00,South,186,3.0,8.0,97,0.00,,,0.00,4.000000,,2013-07-08 12:01:00,
2013-07-08 07:22:00,61.0,60.0,-100.00,SW,215,3.0,7.0,97,0.00,,,-99.99,35.000000,,2013-07-08 12:22:00,
2013-07-08 07:34:00,61.0,60.0,-100.00,SW,215,3.0,7.0,97,0.00,,,-99.99,35.000000,,2013-07-08 12:34:00,
2013-07-08 07:43:00,61.0,60.0,-100.00,SW,215,3.0,7.0,97,0.00,,,-99.99,35.000000,,2013-07-08 12:43:00,
2013-07-08 07:53:00,61.0,60.0,-100.00,SW,215,3.0,7.0,97,0.00,,,-99.99,35.000000,,2013-07-08 12:53:00,
2013-07-08 08:02:00,61.0,60.0,-100.00,SW,215,3.0,7.0,97,0.00,,,-99.99,35.000000,,2013-07-08 13:02:00,
2013-07-08 08:22:00,63.0,62.0,-100.00,SW,229,3.0,5.0,97,0.00,,,0.00,105.000000,,2013-07-08 13:22:00,
2013-07-08 08:33:00,63.0,62.0,-100.00,SW,229,3.0,5.0,97,0.00,,,0.00,105.000000,,2013-07-08 13:33:00,
2013-07-08 08:42:00,63.0,62.0,-100.00,SW,229,3.0,5.0,97,0.00,,,0.00,105.000000,,2013-07-08 13:42:00,
2013-07-08 08:53:00,63.0,62.0,-100.00,SW,229,3.0,5.0,97,0.00,,,0.00,105.000000,,2013-07-08 13:53:00,
2013-07-08 09:02:00,63.0,62.0,-100.00,SW,229,3.0,5.0,97,0.00,,,0.00,105.000000,,2013-07-08 14:02:00,
2013-07-08 09:23:00,65.0,62.0,-100.00,WSW,241,3.0,6.0,91,0.00,,,0.00,189.000000,,2013-07-08 14:23:00,
2013-07-08 09:34:00,65.0,62.0,-100.00,WSW,241,3.0,6.0,91,0.00,,,0.00,189.000000,,2013-07-08 14:34:00,
2013-07-08 09:43:00,65.0,62.0,-100.00,WSW,241,3.0,6.0,91,0.00,,,0.00,189.000000,,2013-07-08 14:43:00,
2013-07-08 09:53:00,65.0,62.0,-100.00,WSW,241,3.0,6.0,91,0.00,,,0.00,189.000000,,2013-07-08 14:53:00,
2013-07-08 10:02:00,65.0,62.0,-100.00,WSW,241,3.0,6.0,91,0.00,,,0.00,189.000000,,2013-07-08 15:02:00,
2013-07-08 10:33:00,66.0,63.0,-100.00,South,189,3.0,5.0,89,0.00,,,0.00,193.000000,,2013-07-08 15:33:00,
2013-07-08 10:43:00,66.0,63.0,-100.00,South,189,3.0,5.0,89,0.00,,,0.00,193.000000,,2013-07-08 15:43:00,
2013-07-08 10:53:00,66.0,63.0,-100.00,South,189,3.0,5.0,89,0.00,,,0.00,193.000000,,2013-07-08 15:53:00,
2013-07-08 11:01:00,66.0,63.0,-100.00,South,189,3.0,5.0,89,0.00,,,0.00,193.000000,,2013-07-08 16:01:00,
2013-07-08 11:04:00,71.0,64.0,-100.00,WSW,250,4.0,6.0,79,0.00,,,0.00,382.000000,,2013-07-08 16:04:00,
2013-07-08 11:22:00,71.0,64.0,-100.00,WSW,250,4.0,6.0,79,0.00,,,0.00,382.000000,,2013-07-08 16:22:00,
2013-07-08 11:34:00,71.0,64.0,-100.00,WSW,250,4.0,6.0,79,0.00,,,0.00,382.000000,,2013-07-08 16:34:00,
2013-07-08 11:43:00,71.0,64.0,-100.00,WSW,250,4.0,6.0,79,0.00,,,0.00,382.000000,,2013-07-08 16:43:00,
2013-07-08 11:57:00,71.0,64.0,-100.00,WSW,250,4.0,6.0,79,0.00,,,0.00,382.000000,,2013-07-08 16:57:00,
2013-07-08 12:29:00,75.0,64.0,-100.00,WSW,238,4.0,6.0,68,0.00,,,0.00,800.000000,,2013-07-08 17:29:00,
2013-07-08 12:37:00,75.0,64.0,-100.00,WSW,238,4.0,6.0,68,0.00,,,0.00,800.000000,,2013-07-08 17:37:00,
2013-07-08 12:48:00,75.0,64.0,-100.00,WSW,238,4.0,6.0,68,0.00,,,0.00,800.000000,,2013-07-08 17:48:00,
2013-07-08 12:55:00,75.0,64.0,-100.00,WSW,238,4.0,6.0,68,0.00,,,0.00,800.000000,,2013-07-08 17:55:00,
2013-07-08 13:36:00,78.0,61.0,-100.00,NW,326,4.0,9.0,56,0.00,,,0.00,1025.000000,,2013-07-08 18:36:00,
2013-07-08 13:45:00,78.0,61.0,-100.00,NW,326,4.0,9.0,56,0.00,,,0.00,1025.000000,,2013-07-08 18:45:00,
2013-07-08 13:55:00,78.0,61.0,-100.00,NW,326,4.0,9.0,56,0.00,,,0.00,1025.000000,,2013-07-08 18:55:00,
2013-07-08 14:00:00,78.0,61.0,-100.00,NW,326,4.0,9.0,56,0.00,,,0.00,1025.000000,,2013-07-08 19:00:00,
2013-07-08 14:04:00,81.0,61.0,-100.00,North,354,4.0,10.0,51,0.00,,,0.00,1084.000000,,2013-07-08 19:04:00,
2013-07-08 14:36:00,81.0,61.0,-100.00,North,354,4.0,10.0,51,0.00,,,0.00,1084.000000,,2013-07-08 19:36:00,
2013-07-08 14:42:00,81.0,61.0,-100.00,North,354,4.0,10.0,51,0.00,,,0.00,1084.000000,,2013-07-08 19:42:00,
2013-07-08 15:04:00,82.0,57.0,-100.00,NW,321,4.0,9.0,42,0.00,,,0.00,1002.000000,,2013-07-08 20:04:00,
2013-07-08 15:34:00,82.0,57.0,-100.00,NW,321,4.0,9.0,42,0.00,,,0.00,1002.000000,,2013-07-08 20:34:00,
2013-07-08 15:49:00,82.0,57.0,-100.00,NW,321,4.0,9.0,42,0.00,,,0.00,1002.000000,,2013-07-08 20:49:00,
2013-07-08 16:04:00,83.0,55.0,-100.00,West,264,4.0,9.0,39,0.00,,,0.00,890.000000,,2013-07-08 21:04:00,
2013-07-08 16:37:00,83.0,55.0,-100.00,West,264,4.0,9.0,39,0.00,,,0.00,890.000000,,2013-07-08 21:37:00,
2013-07-08 16:47:00,83.0,55.0,-100.00,West,264,4.0,9.0,39,0.00,,,0.00,890.000000,,2013-07-08 21:47:00,
2013-07-08 17:04:00,84.0,58.0,-100.00,West,273,4.0,10.0,41,0.00,,,0.00,747.000000,,2013-07-08 22:04:00,
2013-07-08 17:49:00,84.0,58.0,-100.00,West,273,4.0,10.0,41,0.00,,,0.00,747.000000,,2013-07-08 22:49:00,
2013-07-08 17:59:00,84.0,58.0,-100.00,West,273,4.0,10.0,41,0.00,,,0.00,747.000000,,2013-07-08 22:59:00,
2013-07-08 18:04:00,84.0,59.0,-100.00,SSW,194,4.0,9.0,43,0.00,,,0.00,569.000000,,2013-07-08 23:04:00,
2013-07-08 18:35:00,84.0,59.0,-100.00,SSW,194,4.0,9.0,43,0.00,,,0.00,569.000000,,2013-07-08 23:35:00,
2013-07-08 18:49:00,84.0,59.0,-100.00,SSW,194,4.0,9.0,43,0.00,,,0.00,569.000000,,2013-07-08 23:49:00,
2013-07-08 19:04:00,83.0,60.0,-100.00,SW,236,3.0,7.0,46,0.00,,,0.00,369.000000,,2013-07-09 00:04:00,
2013-07-08 20:04:00,77.0,61.0,-100.00,WNW,295,3.0,6.0,57,0.00,,,0.00,151.000000,,2013-07-09 01:04:00,
2013-07-08 20:37:00,77.0,61.0,-100.00,WNW,295,3.0,6.0,57,0.00,,,0.00,151.000000,,2013-07-09 01:37:00,
2013-07-08 21:04:00,72.0,57.0,-100.00,SSE,161,2.0,4.0,60,0.00,,,0.00,31.000000,,2013-07-09 02:04:00,
2013-07-08 21:50:00,72.0,57.0,-100.00,SSE,161,2.0,4.0,60,0.00,,,0.00,31.000000,,2013-07-09 02:50:00,
2013-07-08 22:59:00,72.0,59.0,-100.00,SSE,168,3.0,5.0,63,0.00,,,0.00,1.000000,,2013-07-09 03:59:00,
2013-07-08 23:02:00,72.0,59.0,-100.00,SSE,168,3.0,5.0,63,0.00,,,0.00,1.000000,,2013-07-09 04:02:00,
2013-07-08 23:22:00,68.0,61.0,-100.00,South,186,4.0,5.0,77,0.00,,,0.00,0.000000,,2013-07-09 04:22:00,
2013-07-08 23:34:00,68.0,61.0,-100.00,South,186,4.0,5.0,77,0.00,,,0.00,0.000000,,2013-07-09 04:34:00,
2013-07-08 23:43:00,68.0,61.0,-100.00,South,186,4.0,5.0,77,0.00,,,0.00,0.000000,,2013-07-09 04:43:00,
2013-07-08 23:53:00,68.0,61.0,-100.00,South,186,4.0,5.0,77,0.00,,,0.00,0.000000,,2013-07-09 04:53:00,